• Join FlightAware (Why Join?)
  • Login
  • US Flag 
Gobble Gobble! 
06:30PM EST


 

Airport Tracker/Info


-or-


 

Live Flight TrackerFlight Track Log ✈ EJM685 ✈ 09-Aug-2013 ✈ KFOK - KDET

Flight Track Log - Related Links

Times and Time Zones

All times are in EDT time to prevent confusion due to time zone crossing. See the EJM685 flight status page for this flight to view local times or setup timezone preferences in your user account.

Time Position Orientation Groundspeed Altitude Reporting Facility
EDT Latitude Longitude Course Direction KTS MPH feet Rate Location/Type
05:30PM 41.1098 -74.5419 283° West  Level FlightAware Approximate
05:31PM 41.1325 -74.6786 283° West  Level FlightAware Approximate
05:32PM 41.1825 -74.7987 312° West  Level FlightAware Approximate
05:33PM 41.2344 -74.9208 299° West  Level FlightAware Approximate
05:34PM 41.2859 -75.0433 299° West  Level FlightAware Approximate
05:35PM 41.3387 -75.1650 301° West  Level FlightAware Approximate
05:36PM 41.3899 -75.2762 302° West  Level FlightAware Approximate
05:37PM 41.4409 -75.3875 301° West  Level FlightAware Approximate
05:38PM 41.4919 -75.4990 301° West  Level FlightAware Approximate
05:39PM 41.5428 -75.6107 301° West  Level FlightAware Approximate
05:40PM 41.5621 -75.7389 284° West  Level Estimated
05:41PM 41.6063 -75.8557 297° West  Level FlightAware Approximate
05:42PM 41.6250 -75.9856 281° West  Level Estimated
05:43PM 41.6436 -76.1155 281° West  Level Estimated
05:44PM 41.6621 -76.2456 281° West  Level Estimated
05:45PM 41.6804 -76.3757 281° West  Level Estimated
05:46PM 41.6986 -76.5058 281° West  Level Estimated
05:47PM 41.7166 -76.6361 281° West  Level Estimated
05:48PM 41.7345 -76.7664 280° West  Level Estimated
05:49PM 41.7522 -76.8968 280° West  Level Estimated
05:50PM 41.7677 -77.0282 279° West  Level FlightAware Approximate
05:51PM 41.7832 -77.1596 279° West  Level FlightAware Approximate
05:52PM 41.7984 -77.2911 279° West  Level FlightAware Approximate
05:53PM 41.8135 -77.4226 279° West  Level FlightAware Approximate
05:54PM 41.8336 -77.5535 282° West  Level FlightAware Approximate
05:55PM 41.8548 -77.6836 282° West  Level FlightAware Approximate
05:56PM 41.8758 -77.8138 282° West  Level FlightAware Approximate
05:57PM 41.8966 -77.9441 282° West  Level FlightAware Approximate
05:58PM 41.9173 -78.0745 282° West  Level FlightAware Approximate
05:59PM 41.9403 -78.2048 283° West  Level FlightAware Approximate
06:00PM 41.9632 -78.3353 283° West  Level FlightAware Approximate
06:01PM 41.9859 -78.4659 283° West  Level FlightAware Approximate
06:02PM 42.0084 -78.5965 283° West  Level FlightAware Approximate
06:03PM 42.0309 -78.7272 283° West  Level FlightAware Approximate
06:04PM 42.0531 -78.8580 283° West  Level FlightAware Approximate
06:05PM 42.0753 -78.9890 283° West  Level FlightAware Approximate
06:06PM 42.0972 -79.1200 283° West  Level FlightAware Approximate
06:07PM 42.1103 -79.2544 277° West  Level Estimated
06:08PM 42.1231 -79.3888 277° West  Level Estimated
06:09PM 42.1517 -79.6934 277° West  Level Estimated
06:10PM 42.1600 -79.7833 277° West  Level Estimated
06:11PM 42.1725 -79.9208 277° West  Level Estimated
06:12PM 42.1848 -80.0584 277° West  Level Estimated
06:13PM 42.1970 -80.1960 277° West  Level Estimated
06:14PM 42.2091 -80.3336 277° West  Level Estimated
06:15PM 42.2209 -80.4714 277° West  Level Estimated
06:16PM 42.2326 -80.6091 277° West  Level Estimated
06:17PM 42.2441 -80.7469 276° West  Level Estimated
06:18PM 42.2555 -80.8848 276° West  Level Estimated
06:19PM 42.2667 -81.0227 276° West  Level Estimated
06:20PM 42.2777 -81.1607 276° West  Level Estimated
06:21PM 42.2884 -81.2956 276° West  Level Estimated
06:22PM 42.2988 -81.4306 276° West  Level Estimated
06:23PM 42.3091 -81.5656 276° West  Level Estimated
06:24PM 42.3193 -81.7007 276° West  Level Estimated
06:25PM 42.3293 -81.8358 276° West  Level Estimated
06:26PM 42.3391 -81.9709 276° West  Level Estimated
06:27PM 42.3488 -82.1061 276° West  Level Estimated
06:28PM 42.3582 -82.2405 275° West  Level Estimated
06:29PM 42.3675 -82.3749 275° West  Level Estimated
06:30PM 42.3767 -82.5094 275° West  Level Estimated
06:31PM 42.3857 -82.6439 275° West  Level Estimated
06:32PM 42.3945 -82.7785 275° West  Level Estimated
06:32PM 42.7167 -82.2000 236° Southwest 300 345 10,600  Level Toronto Center
06:32PM 42.7189 -82.2533 273° West 302 348 9,800 -1,380 Descending Cleveland Center
06:33PM 42.4032 -82.9131 275° West  Level Estimated
06:33PM 42.6925 -82.3458 249° West 279 321 8,500  Level Cleveland Center
06:34PM 42.4093 -83.0102 275° West  Level Estimated
06:34PM 42.6642 -82.4383 247° West 268 308 7,300  Level Cleveland Center
06:35PM 42.4093 -83.0102 236° Southwest  Level Estimated
06:35PM 42.6375 -82.5278 248° West 268 308 6,000  Level Cleveland Center
06:36PM 42.4093 -83.0102 236° Southwest  Level Estimated
06:36PM 42.6050 -82.6114 242° Southwest 268 308 5,000  Level Cleveland Center
06:37PM 42.4093 -83.0102 236° Southwest  Level Estimated
06:37PM 42.5711 -82.6386 211° Southwest 262 302 5,000  Level Cleveland Center
06:38PM 42.5158 -82.6903 215° Southwest 272 313 4,700 -600 Descending Cleveland Center
06:39PM 42.4642 -82.7786 232° Southwest 256 295 3,900 -900 Descending Cleveland Center
06:40PM 42.4192 -82.8503 230° Southwest 253 291 2,900 -720 Descending Cleveland Center
06:41PM 42.3825 -82.9022 226° Southwest 173 199 2,500 -540 Descending Cleveland Center
06:42PM 42.3608 -82.9464 236° Southwest 135 155 1,900 -600 Descending Cleveland Center
06:43PM 42.3831 -82.9839 309° West 114 131 1,300 -600 Descending Cleveland Center
06:45PM 42.4000 -83.0000 236° Southwest  Level FlightAware Approximate
06:52PM 42.4093 -83.0102 236° Southwest  Level Estimated
06:53PM 42.4093 -83.0102 236° Southwest  Level Estimated